Time;durP1;ratioP1;P1;durP2;ratioP2;P2;SDS_P1;SDS_P2;PMS_P1;PMS_P2;Temp;Humidity;BMP_temperature;BMP_pressure;BME280_temperature;BME280_humidity;BME280_pressure;Samples;Min_cycle;Max_cycle;Signal;HPM_P1;HPM_P2
2023/08/25 00:01:26;;;;;;;7.30;4.00;;;;;20.20;96186.00;;;;8281251;28;20198;-63
2023/08/25 00:05:30;;;;;;;10.73;3.83;;;;;20.20;96191.00;;;;8283416;28;20194;-63
2023/08/25 00:09:42;;;;;;;9.93;4.03;;;;;20.20;96191.00;;;;8286217;28;20198;-64
2023/08/25 00:13:45;;;;;;;7.53;4.03;;;;;20.20;96186.00;;;;8283619;28;20210;-64
2023/08/25 00:17:48;;;;;;;8.60;3.80;;;;;20.20;96185.00;;;;8284008;28;20308;-64
2023/08/25 00:21:54;;;;;;;7.35;3.67;;;;;20.20;96179.00;;;;8285158;28;20199;-65
2023/08/25 00:25:59;;;;;;;7.60;4.05;;;;;20.20;96176.00;;;;8284795;28;20779;-65
2023/08/25 00:30:10;;;;;;;6.78;3.67;;;;;20.10;96171.00;;;;8286636;28;20213;-64
2023/08/25 00:34:13;;;;;;;6.18;3.40;;;;;20.10;96169.00;;;;8263644;28;20927;-64
2023/08/25 00:38:16;;;;;;;9.65;3.30;;;;;20.10;96170.00;;;;8285230;28;20305;-64
2023/08/25 00:42:30;;;;;;;7.03;3.35;;;;;20.10;96166.00;;;;8286587;28;20545;-64
2023/08/25 00:46:33;;;;;;;7.45;2.70;;;;;20.00;96170.00;;;;8285846;28;20907;-64
2023/08/25 00:50:37;;;;;;;5.03;3.00;;;;;20.00;96155.00;;;;8283989;28;20198;-64
2023/08/25 00:54:42;;;;;;;5.30;3.67;;;;;19.90;96150.00;;;;8284070;28;20218;-64
2023/08/25 00:58:47;;;;;;;7.88;2.85;;;;;19.90;96143.00;;;;8276984;28;20206;-64
2023/08/25 01:02:52;;;;;;;5.38;2.42;;;;;19.90;96141.00;;;;8285114;28;20680;-63
2023/08/25 01:06:57;;;;;;;4.28;3.20;;;;;19.90;96146.00;;;;8284373;28;20245;-64
2023/08/25 01:11:15;;;;;;;7.57;3.33;;;;;19.80;96143.00;;;;8284525;28;20677;-64
2023/08/25 01:15:29;;;;;;;4.50;3.20;;;;;19.80;96138.00;;;;8270713;28;20219;-65
2023/08/25 01:19:52;;;;;;;5.15;3.08;;;;;19.80;96129.00;;;;8283978;28;20195;-63
2023/08/25 01:24:11;;;;;;;7.05;3.20;;;;;19.80;96126.00;;;;8282913;28;20844;-63
2023/08/25 01:28:21;;;;;;;7.50;3.17;;;;;19.80;96138.00;;;;8282859;28;20213;-64
2023/08/25 01:32:24;;;;;;;5.97;3.35;;;;;19.70;96137.00;;;;8282754;28;20615;-65
2023/08/25 01:36:37;;;;;;;7.70;3.25;;;;;19.70;96133.00;;;;8282246;28;20261;-64
2023/08/25 01:40:44;;;;;;;7.65;3.40;;;;;19.70;96135.00;;;;8278144;28;20305;-63
2023/08/25 01:44:50;;;;;;;9.45;4.55;;;;;19.70;96128.00;;;;8279264;28;20464;-63
2023/08/25 01:48:58;;;;;;;10.70;3.70;;;;;19.70;96141.00;;;;8277676;28;20956;-63
2023/08/25 01:53:02;;;;;;;10.63;4.05;;;;;19.70;96133.00;;;;8282487;28;20570;-65
2023/08/25 01:57:06;;;;;;;6.70;3.72;;;;;19.70;96127.00;;;;8282762;28;20229;-63
2023/08/25 02:01:10;;;;;;;7.82;3.90;;;;;19.70;96126.00;;;;8281373;28;20332;-63
2023/08/25 02:05:13;;;;;;;11.38;4.10;;;;;19.70;96124.00;;;;8281777;28;20321;-63
2023/08/25 02:09:17;;;;;;;9.05;4.00;;;;;19.70;96125.00;;;;8280542;28;20297;-64
2023/08/25 02:13:22;;;;;;;9.48;3.97;;;;;19.60;96115.00;;;;8274184;28;20233;-63
2023/08/25 02:17:27;;;;;;;8.95;4.00;;;;;19.60;96116.00;;;;8279740;28;20256;-63
2023/08/25 02:21:30;;;;;;;7.60;5.00;;;;;19.60;96119.00;;;;8280386;28;20211;-63
2023/08/25 02:25:38;;;;;;;10.18;4.20;;;;;19.60;96124.00;;;;8263241;28;20285;-63
2023/08/25 02:29:43;;;;;;;7.68;4.47;;;;;19.60;96108.00;;;;8276927;28;20202;-63
2023/08/25 02:33:49;;;;;;;7.45;4.13;;;;;19.60;96092.00;;;;8281445;28;20229;-64
2023/08/25 02:37:58;;;;;;;10.93;5.00;;;;;19.60;96093.00;;;;8282442;28;21102;-63
2023/08/25 02:42:04;;;;;;;13.70;4.85;;;;;19.50;96076.00;;;;8282147;28;20977;-63
2023/08/25 02:46:11;;;;;;;11.55;5.13;;;;;19.50;96079.00;;;;8280491;28;20212;-64
2023/08/25 02:50:16;;;;;;;11.18;5.55;;;;;19.60;96080.00;;;;8282005;28;20200;-63
2023/08/25 02:54:20;;;;;;;10.48;4.88;;;;;19.50;96084.00;;;;8282312;28;20206;-64
2023/08/25 02:58:24;;;;;;;19.30;5.45;;;;;19.60;96085.00;;;;8280780;28;20256;-65
2023/08/25 03:02:29;;;;;;;15.20;5.82;;;;;19.60;96084.00;;;;8320912;23;20254;-65
2023/08/25 03:06:33;;;;;;;12.93;5.63;;;;;19.70;96091.00;;;;8276972;28;20852;-65
2023/08/25 03:10:36;;;;;;;10.85;5.65;;;;;19.70;96076.00;;;;8282868;28;20213;-64
2023/08/25 03:14:42;;;;;;;15.55;6.00;;;;;19.70;96082.00;;;;8281787;28;20289;-64
2023/08/25 03:18:45;;;;;;;16.67;5.82;;;;;19.70;96089.00;;;;8278586;28;20218;-64
2023/08/25 03:22:54;;;;;;;13.82;6.55;;;;;19.80;96082.00;;;;8295800;28;20237;-64
2023/08/25 03:26:59;;;;;;;19.88;6.10;;;;;19.80;96101.00;;;;8290581;28;20202;-65
2023/08/25 03:31:02;;;;;;;15.95;6.43;;;;;19.90;96098.00;;;;8287178;28;20212;-64
2023/08/25 03:35:06;;;;;;;15.05;5.45;;;;;19.90;96086.00;;;;8269765;28;20206;-65
2023/08/25 03:39:11;;;;;;;10.30;4.80;;;;;19.90;96078.00;;;;8284812;28;20643;-66
2023/08/25 03:43:16;;;;;;;21.23;5.85;;;;;19.80;96083.00;;;;8280960;28;20206;-65
2023/08/25 03:47:21;;;;;;;16.80;5.60;;;;;19.80;96082.00;;;;8284297;28;20758;-66
2023/08/25 03:51:24;;;;;;;16.05;6.30;;;;;19.70;96095.00;;;;8277908;28;20293;-66
2023/08/25 03:55:35;;;;;;;11.48;5.72;;;;;19.70;96083.00;;;;8276018;28;20289;-66
2023/08/25 03:59:40;;;;;;;18.42;5.75;;;;;19.60;96081.00;;;;8280663;28;20241;-65
2023/08/25 04:03:43;;;;;;;12.82;6.63;;;;;19.60;96086.00;;;;8275143;28;20734;-66
2023/08/25 04:07:48;;;;;;;14.82;5.97;;;;;19.60;96079.00;;;;8279244;28;20221;-66
2023/08/25 04:11:55;;;;;;;22.48;8.25;;;;;19.60;96074.00;;;;8282053;28;20206;-66
2023/08/25 04:16:04;;;;;;;17.83;6.97;;;;;19.60;96076.00;;;;8277629;28;20304;-66
2023/08/25 04:20:10;;;;;;;17.50;6.72;;;;;19.60;96070.00;;;;8270422;28;20286;-67
2023/08/25 04:24:14;;;;;;;18.00;6.55;;;;;19.60;96069.00;;;;8283211;28;20256;-67
2023/08/25 04:28:18;;;;;;;17.30;6.60;;;;;19.60;96067.00;;;;8276543;28;20206;-66
2023/08/25 04:32:24;;;;;;;13.77;6.60;;;;;19.60;96069.00;;;;8277188;28;20336;-65
2023/08/25 04:36:31;;;;;;;18.10;7.18;;;;;19.60;96065.00;;;;8283273;28;20700;-66
2023/08/25 04:40:34;;;;;;;15.15;6.57;;;;;19.60;96044.00;;;;8285107;28;20616;-67
2023/08/25 04:44:38;;;;;;;15.07;6.95;;;;;19.60;96055.00;;;;8283806;28;20795;-66
2023/08/25 04:48:46;;;;;;;17.98;6.82;;;;;19.60;96053.00;;;;8279878;28;20267;-66
2023/08/25 04:52:50;;;;;;;15.50;7.18;;;;;19.70;96048.00;;;;8280806;28;20293;-65
2023/08/25 04:56:59;;;;;;;17.35;6.50;;;;;19.70;96043.00;;;;8281362;28;20258;-66
2023/08/25 05:01:05;;;;;;;13.35;7.43;;;;;19.70;96031.00;;;;8282722;28;20210;-66
2023/08/25 05:05:11;;;;;;;11.90;6.55;;;;;19.80;96021.00;;;;8249885;28;20234;-66
2023/08/25 05:09:14;;;;;;;18.05;6.72;;;;;19.90;96013.00;;;;8265003;28;20201;-67
2023/08/25 05:13:18;;;;;;;16.60;7.80;;;;;20.10;96018.00;;;;8280819;28;20263;-65
2023/08/25 05:17:23;;;;;;;17.52;6.10;;;;;20.20;96022.00;;;;8259202;28;20229;-65
2023/08/25 05:21:30;;;;;;;15.85;7.30;;;;;20.40;96021.00;;;;8278197;28;20309;-66
2023/08/25 05:25:34;;;;;;;15.07;6.65;;;;;20.50;96021.00;;;;8281122;28;21703;-67
2023/08/25 05:29:37;;;;;;;17.85;6.03;;;;;20.60;96018.00;;;;8277421;28;20206;-66
2023/08/25 05:33:42;;;;;;;14.02;7.45;;;;;20.70;96002.00;;;;8280355;28;20198;-67
2023/08/25 05:37:45;;;;;;;12.50;6.75;;;;;20.70;96015.00;;;;8276894;28;20310;-67
2023/08/25 05:41:50;;;;;;;21.13;7.88;;;;;20.70;96018.00;;;;8279910;28;20197;-66
2023/08/25 05:45:53;;;;;;;19.70;7.03;;;;;20.70;96016.00;;;;8280144;28;20205;-66
2023/08/25 05:50:02;;;;;;;14.05;6.68;;;;;20.70;96007.00;;;;8272934;28;22098;-67
2023/08/25 05:54:05;;;;;;;13.82;6.85;;;;;20.70;96005.00;;;;8281973;28;20210;-67
2023/08/25 05:58:10;;;;;;;18.48;7.75;;;;;20.70;96002.00;;;;8278087;28;20281;-67
2023/08/25 06:02:14;;;;;;;21.00;6.38;;;;;20.70;95997.00;;;;8274353;28;20956;-66
2023/08/25 06:06:19;;;;;;;16.73;7.50;;;;;20.70;96012.00;;;;8273407;28;20245;-66
2023/08/25 06:10:22;;;;;;;19.70;8.13;;;;;20.80;96004.00;;;;8277738;28;20630;-66
2023/08/25 06:14:30;;;;;;;11.48;6.72;;;;;21.00;96000.00;;;;8270068;28;20208;-66
2023/08/25 06:18:33;;;;;;;17.75;6.82;;;;;21.20;96009.00;;;;8280871;28;20234;-68
2023/08/25 06:22:38;;;;;;;16.88;7.13;;;;;21.40;95998.00;;;;8278156;28;20226;-66
2023/08/25 06:26:43;;;;;;;11.95;6.38;;;;;21.60;96016.00;;;;8279547;28;21064;-67
2023/08/25 06:30:55;;;;;;;14.05;7.00;;;;;21.80;96011.00;;;;8275586;28;20212;-68
2023/08/25 06:34:58;;;;;;;15.93;7.20;;;;;21.90;96005.00;;;;8274227;28;20301;-68
2023/08/25 06:39:05;;;;;;;11.73;6.72;;;;;22.10;96009.00;;;;8268517;28;20236;-66
2023/08/25 06:43:11;;;;;;;12.93;7.03;;;;;22.30;95990.00;;;;8272971;28;20244;-67
2023/08/25 06:47:14;;;;;;;13.07;6.85;;;;;22.40;95981.00;;;;8274509;28;20292;-67
2023/08/25 06:51:20;;;;;;;17.05;7.10;;;;;22.60;95980.00;;;;8270154;28;20305;-68
2023/08/25 06:55:26;;;;;;;12.63;6.50;;;;;22.90;95983.00;;;;8267273;28;20312;-67
2023/08/25 06:59:36;;;;;;;9.82;6.60;;;;;23.10;95972.00;;;;8277293;28;20239;-68
2023/08/25 07:03:39;;;;;;;9.60;6.03;;;;;23.30;95985.00;;;;8272558;28;20314;-69
2023/08/25 07:07:43;;;;;;;8.07;5.90;;;;;23.50;95989.00;;;;8270740;28;20204;-67
2023/08/25 07:11:48;;;;;;;10.25;5.07;;;;;23.70;95983.00;;;;8265109;28;20213;-67
2023/08/25 07:15:51;;;;;;;9.07;4.80;;;;;23.90;95982.00;;;;8274213;28;20198;-66
2023/08/25 07:19:58;;;;;;;9.60;5.40;;;;;24.10;95974.00;;;;8272023;28;20320;-67
2023/08/25 07:24:02;;;;;;;9.77;4.90;;;;;24.30;95982.00;;;;8264707;28;20206;-66
2023/08/25 07:28:07;;;;;;;8.48;4.68;;;;;24.60;95985.00;;;;8274086;28;20652;-66
2023/08/25 07:32:13;;;;;;;7.35;4.90;;;;;25.30;95972.00;;;;8269969;28;20300;-67
2023/08/25 07:36:19;;;;;;;11.57;5.40;;;;;26.30;95983.00;;;;8265976;28;20213;-66
2023/08/25 07:40:22;;;;;;;4.68;4.28;;;;;26.90;96000.00;;;;8271443;28;20230;-67
2023/08/25 07:44:28;;;;;;;8.60;4.20;;;;;27.30;96005.00;;;;8266456;28;20209;-66
2023/08/25 07:48:31;;;;;;;7.93;4.60;;;;;27.70;96001.00;;;;8264071;28;20203;-66
2023/08/25 07:52:34;;;;;;;8.23;4.60;;;;;28.00;96006.00;;;;8272921;28;20199;-67
2023/08/25 07:56:37;;;;;;;5.72;4.47;;;;;28.00;96014.00;;;;8271194;28;20198;-66
2023/08/25 08:00:45;;;;;;;9.50;4.80;;;;;28.40;96016.00;;;;8268963;28;20877;-66
2023/08/25 08:04:48;;;;;;;8.55;4.00;;;;;29.00;96029.00;;;;8262488;28;20289;-66
2023/08/25 08:08:55;;;;;;;6.78;4.13;;;;;29.30;96026.00;;;;8278418;28;20594;-66
2023/08/25 08:12:59;;;;;;;8.57;3.35;;;;;29.70;96033.00;;;;8272332;28;20202;-66
2023/08/25 08:17:07;;;;;;;4.70;3.25;;;;;29.80;96044.00;;;;8274291;28;20229;-67
2023/08/25 08:21:11;;;;;;;8.68;3.65;;;;;30.00;96070.00;;;;8270354;28;20655;-67
2023/08/25 08:25:21;;;;;;;4.40;3.05;;;;;29.40;96087.00;;;;8268717;28;20292;-67
2023/08/25 08:29:26;;;;;;;9.00;3.35;;;;;28.70;96115.00;;;;8271487;28;20306;-66
2023/08/25 08:33:31;;;;;;;6.43;3.70;;;;;28.40;96118.00;;;;8272636;28;20583;-66
2023/08/25 08:37:34;;;;;;;7.13;4.13;;;;;28.40;96132.00;;;;8275461;28;20248;-66
2023/08/25 08:41:43;;;;;;;7.95;4.18;;;;;28.50;96155.00;;;;8270515;28;20195;-66
2023/08/25 08:45:52;;;;;;;5.75;3.63;;;;;28.20;96144.00;;;;8279076;28;20194;-65
2023/08/25 08:49:59;;;;;;;3.70;3.08;;;;;28.30;96144.00;;;;8270683;28;20206;-65
2023/08/25 08:54:06;;;;;;;7.38;3.50;;;;;28.40;96137.00;;;;8277129;28;20241;-65
2023/08/25 08:58:10;;;;;;;6.68;3.75;;;;;28.80;96146.00;;;;8269092;28;20229;-65
2023/08/25 09:02:16;;;;;;;3.88;3.03;;;;;29.50;96151.00;;;;8273683;28;20650;-66
2023/08/25 09:06:27;;;;;;;5.82;3.75;;;;;29.60;96134.00;;;;8273901;28;20317;-66
2023/08/25 09:10:33;;;;;;;4.25;2.90;;;;;30.00;96153.00;;;;8272587;28;20567;-66
2023/08/25 09:14:36;;;;;;;3.30;3.00;;;;;29.40;96160.00;;;;8266182;28;20203;-65
2023/08/25 09:18:41;;;;;;;7.13;3.25;;;;;28.70;96173.00;;;;8273527;28;20286;-65
2023/08/25 09:27:24;;;;;;;9.18;3.50;;;;;26.70;96205.00;;;;8278816;28;20324;-72
2023/08/25 09:31:29;;;;;;;5.18;2.88;;;;;25.60;96220.00;;;;8273318;28;20209;-71
2023/08/25 09:35:34;;;;;;;6.97;3.88;;;;;25.00;96222.00;;;;8254516;28;20234;-70
2023/08/25 09:39:45;;;;;;;4.43;3.10;;;;;24.70;96231.00;;;;8270925;28;20678;-67
2023/08/25 09:43:51;;;;;;;4.05;3.20;;;;;24.70;96248.00;;;;8273513;28;20289;-67
2023/08/25 09:47:55;;;;;;;6.00;3.40;;;;;25.00;96250.00;;;;8275473;28;20213;-66
2023/08/25 09:51:59;;;;;;;6.97;3.78;;;;;25.10;96246.00;;;;8274964;28;20221;-67
2023/08/25 09:56:06;;;;;;;3.92;3.30;;;;;25.40;96230.00;;;;8275761;28;20238;-65
2023/08/25 10:00:10;;;;;;;9.20;3.38;;;;;25.80;96211.00;;;;8271906;28;20226;-65
2023/08/25 10:04:16;;;;;;;4.18;3.25;;;;;26.20;96189.00;;;;8278627;28;20328;-66
2023/08/25 10:08:24;;;;;;;6.03;3.70;;;;;26.50;96186.00;;;;8276972;28;20290;-66
2023/08/25 10:12:32;;;;;;;6.30;3.83;;;;;26.70;96171.00;;;;8267812;28;20723;-66
2023/08/25 10:16:39;;;;;;;6.10;3.78;;;;;26.70;96127.00;;;;8272239;28;20194;-66
2023/08/25 10:20:44;;;;;;;6.38;4.22;;;;;26.70;96123.00;;;;8259478;28;20344;-66
2023/08/25 10:24:49;;;;;;;5.25;3.67;;;;;26.60;96116.00;;;;8275208;28;20289;-65
2023/08/25 10:28:54;;;;;;;7.90;3.60;;;;;26.50;96111.00;;;;8258144;28;20202;-66
2023/08/25 10:33:04;;;;;;;9.05;3.72;;;;;26.50;96092.00;;;;8263853;28;20788;-65
2023/08/25 10:37:10;;;;;;;10.05;4.00;;;;;26.50;96152.00;;;;8255572;28;20194;-65
2023/08/25 10:41:21;;;;;;;4.47;3.50;;;;;26.90;96167.00;;;;8268107;28;20617;-64
2023/08/25 10:45:26;;;;;;;5.47;3.88;;;;;27.30;96156.00;;;;8266241;28;20650;-65
2023/08/25 10:49:40;;;;;;;8.07;3.33;;;;;27.80;96175.00;;;;8271311;28;20198;-65
2023/08/25 10:53:45;;;;;;;5.90;3.95;;;;;28.40;96176.00;;;;8265694;28;20195;-68
2023/08/25 10:57:54;;;;;;;8.82;3.42;;;;;28.60;96175.00;;;;8273863;28;20289;-67
2023/08/25 11:01:59;;;;;;;6.15;4.13;;;;;28.80;96181.00;;;;8259298;28;20667;-67
2023/08/25 11:06:03;;;;;;;5.93;3.83;;;;;29.10;96174.00;;;;8265561;28;20213;-66
2023/08/25 11:10:14;;;;;;;3.83;3.33;;;;;29.90;96156.00;;;;8265744;28;20206;-69
2023/08/25 11:14:20;;;;;;;4.32;3.28;;;;;30.00;96165.00;;;;8270980;28;20576;-68
2023/08/25 11:18:29;;;;;;;4.65;3.60;;;;;29.70;96167.00;;;;8275901;28;20674;-66
2023/08/25 11:22:32;;;;;;;5.15;3.60;;;;;29.30;96165.00;;;;8272864;28;21312;-66
2023/08/25 11:26:35;;;;;;;7.05;3.60;;;;;29.20;96160.00;;;;8258277;28;20198;-67
2023/08/25 11:30:41;;;;;;;3.80;3.22;;;;;29.20;96173.00;;;;8278267;28;20298;-66
2023/08/25 11:34:49;;;;;;;4.68;3.80;;;;;29.20;96176.00;;;;8269806;28;20226;-66
2023/08/25 11:38:52;;;;;;;6.68;3.70;;;;;29.30;96170.00;;;;8277454;28;20230;-67
2023/08/25 11:42:56;;;;;;;4.93;3.50;;;;;29.50;96160.00;;;;8277578;28;20210;-69
2023/08/25 11:47:00;;;;;;;3.92;3.40;;;;;29.80;96171.00;;;;8265330;28;20202;-71
2023/08/25 11:51:17;;;;;;;4.82;3.38;;;;;29.60;96182.00;;;;8290000;28;20198;-70
2023/08/25 11:55:32;;;;;;;4.13;3.45;;;;;29.40;96161.00;;;;8288205;28;20206;-70
2023/08/25 11:59:43;;;;;;;4.82;2.92;;;;;29.80;96168.00;;;;8270051;28;20324;-70
2023/08/25 12:03:47;;;;;;;3.60;3.30;;;;;29.80;96176.00;;;;8282345;28;21074;-70
2023/08/25 12:08:00;;;;;;;6.18;3.35;;;;;29.90;96171.00;;;;8277960;28;20289;-70
2023/08/25 12:12:04;;;;;;;3.20;2.90;;;;;29.90;96172.00;;;;8285918;28;20198;-70
2023/08/25 12:16:14;;;;;;;4.05;2.63;;;;;30.20;96160.00;;;;8266654;28;20230;-70
2023/08/25 12:20:24;;;;;;;4.03;2.88;;;;;30.50;96162.00;;;;8284331;28;20312;-70
2023/08/25 12:24:28;;;;;;;5.28;2.80;;;;;30.60;96158.00;;;;8285852;28;20650;-69
2023/08/25 12:28:32;;;;;;;5.97;2.60;;;;;30.80;96141.00;;;;8267974;28;20209;-70
2023/08/25 12:32:35;;;;;;;2.63;2.42;;;;;31.10;96135.00;;;;8272830;28;20217;-70
2023/08/25 12:36:38;;;;;;;6.03;2.70;;;;;31.10;96135.00;;;;8278149;28;20317;-69
2023/08/25 12:40:45;;;;;;;2.67;2.30;;;;;31.20;96149.00;;;;8263300;28;20301;-70
2023/08/25 12:44:50;;;;;;;2.60;2.40;;;;;31.40;96143.00;;;;8279964;28;20711;-70
2023/08/25 12:48:55;;;;;;;4.85;2.60;;;;;31.50;96143.00;;;;8284466;28;20256;-70
2023/08/25 12:52:58;;;;;;;2.78;2.30;;;;;31.90;96133.00;;;;8274187;28;20321;-70
2023/08/25 12:57:05;;;;;;;3.72;2.33;;;;;32.00;96129.00;;;;8274089;28;20209;-70
2023/08/25 13:01:11;;;;;;;5.65;2.30;;;;;31.80;96122.00;;;;8272593;28;20228;-70
2023/08/25 13:05:15;;;;;;;2.42;2.33;;;;;31.70;96128.00;;;;8279321;28;20257;-70
2023/08/25 13:09:20;;;;;;;2.70;2.40;;;;;31.80;96124.00;;;;8282722;28;20280;-70
2023/08/25 13:13:28;;;;;;;3.58;2.33;;;;;32.00;96121.00;;;;8277284;28;20199;-70
2023/08/25 13:17:31;;;;;;;2.95;2.42;;;;;31.80;96116.00;;;;8278881;28;20209;-70
2023/08/25 13:21:34;;;;;;;2.63;2.42;;;;;31.90;96116.00;;;;8272677;28;20248;-70
2023/08/25 13:25:38;;;;;;;4.72;3.05;;;;;31.90;96114.00;;;;8265620;28;20246;-70
2023/08/25 13:29:43;;;;;;;3.83;2.55;;;;;31.80;96107.00;;;;8273054;28;20200;-70
2023/08/25 13:33:46;;;;;;;2.65;2.40;;;;;31.50;96107.00;;;;8272749;28;20296;-70
2023/08/25 13:37:49;;;;;;;4.03;2.42;;;;;31.20;96096.00;;;;8268985;28;20194;-70
2023/08/25 13:41:52;;;;;;;4.07;2.38;;;;;30.90;96090.00;;;;8275829;28;20257;-70
2023/08/25 13:45:58;;;;;;;5.82;2.60;;;;;30.70;96109.00;;;;8277629;28;20662;-70
2023/08/25 13:50:01;;;;;;;2.95;2.50;;;;;30.50;96120.00;;;;8280465;28;20205;-70
2023/08/25 13:54:18;;;;;;;2.38;2.22;;;;;30.40;96119.00;;;;8280183;28;20198;-70
2023/08/25 13:58:22;;;;;;;2.85;2.50;;;;;30.20;96118.00;;;;8274361;28;20759;-71
2023/08/25 14:02:30;;;;;;;2.70;2.50;;;;;30.00;96119.00;;;;8277759;28;20241;-69
2023/08/25 14:06:36;;;;;;;3.72;3.08;;;;;29.80;96130.00;;;;8259026;28;20201;-68
2023/08/25 14:10:39;;;;;;;8.75;3.00;;;;;29.70;96124.00;;;;8275795;28;20230;-68
2023/08/25 14:14:44;;;;;;;5.90;3.08;;;;;29.40;96123.00;;;;8271029;28;20234;-69
2023/08/25 14:18:51;;;;;;;5.90;3.00;;;;;29.10;96132.00;;;;8281492;28;20281;-68
2023/08/25 14:22:55;;;;;;;5.78;3.42;;;;;29.00;96132.00;;;;8281337;28;20276;-69
2023/08/25 14:26:59;;;;;;;3.30;3.00;;;;;28.80;96133.00;;;;8277813;28;20201;-69
2023/08/25 14:31:06;;;;;;;5.10;3.20;;;;;28.60;96138.00;;;;8281156;28;20194;-69
2023/08/25 14:35:13;;;;;;;5.13;3.22;;;;;28.40;96129.00;;;;8274862;28;20205;-68
2023/08/25 14:39:16;;;;;;;7.28;3.10;;;;;28.30;96126.00;;;;8281657;28;20237;-68
2023/08/25 14:43:22;;;;;;;5.28;3.10;;;;;28.10;96121.00;;;;8276950;28;20198;-68
2023/08/25 14:47:25;;;;;;;4.82;3.22;;;;;28.10;96125.00;;;;8275397;28;20202;-68
2023/08/25 14:51:31;;;;;;;3.88;3.38;;;;;28.10;96139.00;;;;8279622;28;20927;-68
2023/08/25 14:55:37;;;;;;;6.63;3.42;;;;;28.10;96129.00;;;;8264569;28;20298;-68
2023/08/25 14:59:43;;;;;;;5.10;3.97;;;;;28.10;96131.00;;;;8281682;28;20201;-68
2023/08/25 15:03:46;;;;;;;4.30;3.55;;;;;27.30;96144.00;;;;8280784;28;20308;-72
2023/08/25 15:07:54;;;;;;;4.35;3.95;;;;;26.80;96123.00;;;;8278312;28;20198;-69
2023/08/25 15:11:57;;;;;;;5.63;3.67;;;;;26.60;96126.00;;;;8284453;28;20202;-68
2023/08/25 15:16:00;;;;;;;4.90;4.05;;;;;26.30;96131.00;;;;8284741;28;20284;-73
2023/08/25 15:20:04;;;;;;;6.22;4.40;;;;;25.60;96107.00;;;;8284855;28;20672;-72
2023/08/25 15:24:11;;;;;;;6.30;4.55;;;;;25.30;96106.00;;;;8281660;28;20288;-73
2023/08/25 15:28:14;;;;;;;8.15;4.80;;;;;25.10;96070.00;;;;8287886;28;20202;-72
2023/08/25 15:32:21;;;;;;;8.40;4.75;;;;;25.00;96047.00;;;;8252061;28;20198;-69
2023/08/25 15:36:26;;;;;;;6.60;4.40;;;;;24.70;96050.00;;;;8282034;28;20205;-70
2023/08/25 15:40:33;;;;;;;4.88;4.32;;;;;24.50;96039.00;;;;8286904;28;20229;-72
2023/08/25 15:44:36;;;;;;;5.15;3.85;;;;;24.30;96021.00;;;;8280126;28;20842;-72
2023/08/25 15:48:40;;;;;;;4.03;3.58;;;;;24.20;96010.00;;;;8282464;28;20190;-73
2023/08/25 15:52:45;;;;;;;4.10;3.67;;;;;24.40;96015.00;;;;8286485;28;20293;-71
2023/08/25 15:56:50;;;;;;;5.47;4.03;;;;;24.60;96013.00;;;;8284246;28;20646;-71
2023/08/25 16:00:59;;;;;;;3.53;3.33;;;;;24.90;96007.00;;;;8287305;28;20240;-71
2023/08/25 16:05:04;;;;;;;7.15;3.70;;;;;25.20;96012.00;;;;8279883;28;20240;-70
2023/08/25 16:09:08;;;;;;;6.03;3.70;;;;;25.30;96011.00;;;;8288865;28;20965;-71
2023/08/25 16:13:12;;;;;;;11.82;3.60;;;;;25.30;96010.00;;;;8285699;28;20289;-71
2023/08/25 16:17:17;;;;;;;5.03;3.60;;;;;25.30;96027.00;;;;8260044;28;20208;-71
2023/08/25 16:21:20;;;;;;;4.07;3.78;;;;;25.50;96030.00;;;;8285428;28;20662;-71
2023/08/25 16:25:24;;;;;;;4.20;3.58;;;;;25.70;96022.00;;;;8284665;28;20194;-71
2023/08/25 16:29:33;;;;;;;5.43;3.70;;;;;25.90;96030.00;;;;8284033;28;20202;-70
2023/08/25 16:33:38;;;;;;;4.25;3.22;;;;;26.30;96027.00;;;;8273021;28;20204;-72
2023/08/25 16:37:48;;;;;;;5.07;3.75;;;;;26.60;96011.00;;;;8280876;28;20620;-71
2023/08/25 16:41:53;;;;;;;4.28;3.50;;;;;26.80;96019.00;;;;8285271;28;20309;-71
2023/08/25 16:46:02;;;;;;;3.88;3.55;;;;;26.80;96018.00;;;;8288584;28;20636;-71
2023/08/25 16:50:11;;;;;;;3.50;3.20;;;;;26.90;96017.00;;;;8275403;28;20249;-71
2023/08/25 16:54:14;;;;;;;4.43;3.65;;;;;27.00;96016.00;;;;8284981;28;20206;-70
2023/08/25 16:58:19;;;;;;;7.72;4.03;;;;;27.10;96018.00;;;;8279654;28;20778;-71
2023/08/25 17:02:26;;;;;;;5.03;3.65;;;;;27.40;96017.00;;;;8281529;28;20325;-70
2023/08/25 17:06:30;;;;;;;5.95;3.40;;;;;27.90;96004.00;;;;8279418;28;20230;-70
2023/08/25 17:10:35;;;;;;;4.00;3.42;;;;;28.50;95997.00;;;;8282076;28;20281;-68
2023/08/25 17:14:38;;;;;;;5.07;3.70;;;;;28.50;95996.00;;;;8280389;28;20722;-68
2023/08/25 17:18:42;;;;;;;4.65;3.67;;;;;28.30;95984.00;;;;8281510;28;20226;-68
2023/08/25 17:22:45;;;;;;;4.32;3.60;;;;;27.90;95995.00;;;;8281876;28;20225;-68
2023/08/25 17:26:51;;;;;;;4.78;3.45;;;;;27.50;95985.00;;;;8269292;28;20202;-67
2023/08/25 17:31:05;;;;;;;4.55;3.97;;;;;27.10;95982.00;;;;8281156;28;20237;-67
2023/08/25 17:35:10;;;;;;;5.20;3.70;;;;;26.80;95967.00;;;;8281103;28;20202;-67
2023/08/25 17:39:13;;;;;;;5.47;3.58;;;;;26.50;95985.00;;;;8275931;28;20209;-70
2023/08/25 17:43:17;;;;;;;4.05;3.60;;;;;26.20;96002.00;;;;8272259;28;20854;-70
2023/08/25 17:47:20;;;;;;;10.32;4.13;;;;;25.90;95997.00;;;;8276341;28;20202;-69
2023/08/25 17:51:24;;;;;;;4.45;3.83;;;;;25.70;95990.00;;;;8284073;28;20301;-70
2023/08/25 17:55:27;;;;;;;5.63;3.97;;;;;25.50;95987.00;;;;8282013;28;20289;-69
2023/08/25 17:59:34;;;;;;;6.05;4.30;;;;;25.40;95988.00;;;;8277274;28;20544;-69
2023/08/25 18:03:38;;;;;;;4.97;4.47;;;;;25.00;95995.00;;;;8270111;28;20233;-70
2023/08/25 18:07:44;;;;;;;5.43;4.43;;;;;24.80;96009.00;;;;8275871;28;20241;-69
2023/08/25 18:11:49;;;;;;;4.55;4.15;;;;;24.60;96011.00;;;;8276749;28;20202;-69
2023/08/25 18:15:58;;;;;;;8.25;4.30;;;;;24.30;96004.00;;;;8273208;28;20790;-69
2023/08/25 18:20:04;;;;;;;5.43;4.78;;;;;24.00;96019.00;;;;8278993;28;20202;-69
2023/08/25 18:24:11;;;;;;;6.10;5.10;;;;;23.70;96019.00;;;;8275389;28;20334;-70
2023/08/25 18:28:17;;;;;;;7.07;5.20;;;;;23.50;96020.00;;;;8270580;28;20201;-69
2023/08/25 18:32:21;;;;;;;7.57;5.28;;;;;23.30;96025.00;;;;8266993;28;20294;-70
2023/08/25 18:36:25;;;;;;;9.60;5.95;;;;;23.20;96025.00;;;;8277726;28;20198;-70
2023/08/25 18:40:30;;;;;;;11.65;5.32;;;;;23.10;96024.00;;;;8274849;28;20198;-69
2023/08/25 18:44:33;;;;;;;11.50;5.32;;;;;23.00;96043.00;;;;8275949;28;20245;-70
2023/08/25 18:48:42;;;;;;;7.10;5.47;;;;;23.00;96056.00;;;;8279162;28;20285;-69
2023/08/25 18:52:45;;;;;;;8.63;5.10;;;;;23.00;96047.00;;;;8278642;28;20285;-70
2023/08/25 18:56:50;;;;;;;6.63;5.25;;;;;23.00;96057.00;;;;8277971;28;20289;-70
2023/08/25 19:00:53;;;;;;;6.22;5.63;;;;;22.90;96051.00;;;;8276021;28;20200;-69
2023/08/25 19:04:59;;;;;;;5.45;4.90;;;;;22.80;96053.00;;;;8266536;28;20230;-70
2023/08/25 19:09:06;;;;;;;9.35;5.57;;;;;22.80;96037.00;;;;8277877;28;20918;-69
2023/08/25 19:13:14;;;;;;;7.85;5.45;;;;;22.60;96029.00;;;;8277167;28;20277;-70
2023/08/25 19:17:17;;;;;;;9.20;6.30;;;;;22.50;96019.00;;;;8276107;28;20245;-71
2023/08/25 19:21:23;;;;;;;8.55;5.95;;;;;22.30;96020.00;;;;8278467;28;20221;-70
2023/08/25 19:25:27;;;;;;;8.43;6.03;;;;;22.30;96016.00;;;;8278380;28;20209;-70
2023/08/25 19:29:32;;;;;;;12.07;6.50;;;;;22.20;96010.00;;;;8276035;28;20555;-70
2023/08/25 19:33:38;;;;;;;10.43;5.85;;;;;22.10;96007.00;;;;8277508;28;20221;-71
2023/08/25 19:37:43;;;;;;;11.50;7.10;;;;;22.00;96004.00;;;;8280095;28;20587;-71
2023/08/25 19:41:47;;;;;;;13.45;7.28;;;;;22.00;96010.00;;;;8270816;28;20305;-71
2023/08/25 19:45:52;;;;;;;9.32;6.90;;;;;22.00;96011.00;;;;8278692;28;20646;-71
2023/08/25 19:49:58;;;;;;;10.30;6.65;;;;;21.90;96018.00;;;;8276488;28;20250;-71
2023/08/25 19:54:10;;;;;;;8.77;5.97;;;;;21.80;96001.00;;;;8268741;28;20202;-70
2023/08/25 19:58:13;;;;;;;10.85;7.07;;;;;21.70;96004.00;;;;8275110;28;20222;-69
2023/08/25 20:02:20;;;;;;;9.30;7.05;;;;;21.60;95999.00;;;;8278607;28;20226;-69
2023/08/25 20:06:33;;;;;;;10.13;7.22;;;;;21.60;96004.00;;;;8284594;28;20984;-70
2023/08/25 20:10:39;;;;;;;10.93;7.20;;;;;21.60;95991.00;;;;8284251;28;20204;-69
2023/08/25 20:14:44;;;;;;;10.38;7.10;;;;;21.50;95977.00;;;;8283556;28;20229;-69
2023/08/25 20:18:51;;;;;;;17.38;6.60;;;;;21.60;95958.00;;;;8283020;28;20297;-70
2023/08/25 20:22:58;;;;;;;13.90;7.75;;;;;21.50;95960.00;;;;8286318;28;20234;-69
2023/08/25 20:27:03;;;;;;;10.55;7.07;;;;;21.50;95951.00;;;;8286242;28;20206;-69
2023/08/25 20:31:06;;;;;;;8.90;6.85;;;;;21.50;95977.00;;;;8282463;28;20667;-69